Kezdőlap
METAR-TAF:

METAR-TAF

Repülőterek :

Boulder City, Nevada, Amerikai Egyesült Államok

földrajzi szélesség: 35-56-50N, földrajzi hosszúság: 114-51-37W, magasság: 671 m

Jelenlegi meteorológiai megfigyelések

A jelentés 24 perccel ezelõtt készült, 12:15 UTC
Észak-északkeleti szél 11 kt széllökések: 21 kt
Hőmérséklet 21°C
Páratartalom 9%
Légköri nyomás 1008 hPa
Látótávolság: 16.1 km
Derült ég

METAR: KBVU 181215Z AUTO 02011G21KT 10SM CLR 21/M13 A2978 RMK AO2

Idő: 05:39 (12:39 UTC)


TAF: hiányzik

Meteorológiai megfigyelések és előrejelzések több, mint 4000 repülőtéren (METAR és TAF jelentéseket).

A térképen piros és sárga pontok jelzik az elérhető meteorológiai állomásokat.

Mozgassa az egeret a pont fölött, hogy megjelenjen az állomás neve.

Azután kattintson az időjárási megfigyelések és előrejelzések megtekintéséhez.

A térkép megváltoztatása: kattintson a fekete keresztel jelölt zöld gombra ráközelítéshez, a vonallal jelölt zöld gombra távolításhoz, vagy a zöld nyilakra a szomszédos térképek eléréséhez.


METAR-TAF: